Time;durP1;ratioP1;P1;durP2;ratioP2;P2;SDS_P1;SDS_P2;PMS_P1;PMS_P2;Temp;Humidity;BMP_temperature;BMP_pressure;BME280_temperature;BME280_humidity;BME280_pressure;Samples;Min_cycle;Max_cycle;Signal;HPM_P1;HPM_P2
2023/04/24 00:00:58;;;;;;;1.73;0.70;;;;;;;;;;5039388;28;20506;-57
2023/04/24 00:03:27;;;;;;;0.80;0.50;;;;;;;;;;5039277;28;20040;-58
2023/04/24 00:05:54;;;;;;;1.60;0.60;;;;;;;;;;5041966;28;20522;-57
2023/04/24 00:08:21;;;;;;;0.98;0.70;;;;;;;;;;5038700;28;20415;-57
2023/04/24 00:10:47;;;;;;;1.77;0.60;;;;;;;;;;5039247;28;20525;-57
2023/04/24 00:13:13;;;;;;;1.20;0.52;;;;;;;;;;5038002;28;20033;-58
2023/04/24 00:15:39;;;;;;;0.70;0.70;;;;;;;;;;5034552;28;20478;-58
2023/04/24 00:18:05;;;;;;;0.90;0.60;;;;;;;;;;5045620;28;20045;-58
2023/04/24 00:20:35;;;;;;;0.60;0.60;;;;;;;;;;5036599;28;20037;-58
2023/04/24 00:23:01;;;;;;;2.30;0.75;;;;;;;;;;5040639;28;20076;-58
2023/04/24 00:25:27;;;;;;;1.92;0.68;;;;;;;;;;5038091;28;20036;-58
2023/04/24 00:27:54;;;;;;;1.15;0.70;;;;;;;;;;5035224;28;20056;-59
2023/04/24 00:30:20;;;;;;;1.67;0.60;;;;;;;;;;5034520;28;20046;-58
2023/04/24 00:32:46;;;;;;;1.05;0.60;;;;;;;;;;5039600;28;20517;-59
2023/04/24 00:35:12;;;;;;;1.95;0.60;;;;;;;;;;5023155;28;20040;-58
2023/04/24 00:37:39;;;;;;;0.90;0.60;;;;;;;;;;5039624;28;20037;-59
2023/04/24 00:40:06;;;;;;;0.60;0.50;;;;;;;;;;5039061;28;20029;-58
2023/04/24 00:42:33;;;;;;;0.77;0.52;;;;;;;;;;5041699;28;20041;-58
2023/04/24 00:45:00;;;;;;;1.30;0.70;;;;;;;;;;5022620;28;20509;-58
2023/04/24 00:47:28;;;;;;;3.72;0.82;;;;;;;;;;5040918;28;20029;-57
2023/04/24 00:49:54;;;;;;;1.33;0.60;;;;;;;;;;5037070;28;20033;-57
2023/04/24 00:52:24;;;;;;;0.95;0.73;;;;;;;;;;5039185;28;20033;-58
2023/04/24 00:54:50;;;;;;;1.20;0.60;;;;;;;;;;5041288;28;20060;-57
2023/04/24 00:57:17;;;;;;;0.85;0.63;;;;;;;;;;5041691;28;20051;-58
2023/04/24 00:59:44;;;;;;;0.60;0.60;;;;;;;;;;5040269;28;20411;-57
2023/04/24 01:02:11;;;;;;;0.68;0.60;;;;;;;;;;5040180;28;20037;-57
2023/04/24 01:04:37;;;;;;;1.35;0.60;;;;;;;;;;5041217;28;20044;-58
2023/04/24 01:07:10;;;;;;;1.33;0.63;;;;;;;;;;5046001;28;20518;-57
2023/04/24 01:09:43;;;;;;;0.80;0.50;;;;;;;;;;5042765;28;20032;-57
2023/04/24 01:12:09;;;;;;;1.63;0.50;;;;;;;;;;5042739;28;20048;-57
2023/04/24 01:14:38;;;;;;;1.42;0.70;;;;;;;;;;5037777;28;20046;-57
2023/04/24 01:17:04;;;;;;;1.40;0.68;;;;;;;;;;5043647;28;20041;-57
2023/04/24 01:19:30;;;;;;;0.40;0.40;;;;;;;;;;5030274;28;20052;-58
2023/04/24 01:21:58;;;;;;;1.10;0.60;;;;;;;;;;5042270;28;20410;-58
2023/04/24 01:24:24;;;;;;;0.77;0.45;;;;;;;;;;5033127;28;20045;-58
2023/04/24 01:26:51;;;;;;;1.15;0.70;;;;;;;;;;5030827;28;20041;-58
2023/04/24 01:29:19;;;;;;;0.68;0.60;;;;;;;;;;5029799;28;20033;-58
2023/04/24 01:31:45;;;;;;;1.00;0.60;;;;;;;;;;5030748;28;20041;-59
2023/04/24 01:34:12;;;;;;;1.90;0.90;;;;;;;;;;5039897;28;20041;-58
2023/04/24 01:36:39;;;;;;;1.50;0.60;;;;;;;;;;5037325;28;20131;-59
2023/04/24 01:39:05;;;;;;;1.35;0.65;;;;;;;;;;5037097;28;20045;-58
2023/04/24 01:41:32;;;;;;;2.13;1.00;;;;;;;;;;5035965;28;20041;-58
2023/04/24 01:43:58;;;;;;;3.15;0.75;;;;;;;;;;5031677;28;20037;-59
2023/04/24 01:46:25;;;;;;;3.10;0.90;;;;;;;;;;5043455;28;20041;-58
2023/04/24 01:48:52;;;;;;;1.60;0.80;;;;;;;;;;5040461;28;20486;-58
2023/04/24 01:51:19;;;;;;;1.23;0.80;;;;;;;;;;5035039;28;20049;-57
2023/04/24 01:53:45;;;;;;;1.20;0.75;;;;;;;;;;5041399;28;20053;-57
2023/04/24 01:56:11;;;;;;;1.70;0.80;;;;;;;;;;5037589;28;20764;-57
2023/04/24 01:58:38;;;;;;;2.13;0.60;;;;;;;;;;5040697;28;20040;-58
2023/04/24 02:01:06;;;;;;;1.63;0.57;;;;;;;;;;5037323;28;20430;-58
2023/04/24 02:03:32;;;;;;;0.88;0.52;;;;;;;;;;5037977;28;20040;-57
2023/04/24 02:05:58;;;;;;;1.17;0.70;;;;;;;;;;5039846;28;20033;-57
2023/04/24 02:08:25;;;;;;;0.60;0.50;;;;;;;;;;5037227;28;20054;-57
2023/04/24 02:10:51;;;;;;;1.23;0.60;;;;;;;;;;5037589;28;20046;-57
2023/04/24 02:13:17;;;;;;;0.88;0.60;;;;;;;;;;5044211;28;20057;-57
2023/04/24 02:15:43;;;;;;;1.13;0.63;;;;;;;;;;5040561;28;20541;-57
2023/04/24 02:18:11;;;;;;;2.10;0.75;;;;;;;;;;5040247;28;20029;-57
2023/04/24 02:20:37;;;;;;;1.05;0.60;;;;;;;;;;5037325;28;20037;-57
2023/04/24 02:23:03;;;;;;;1.50;0.52;;;;;;;;;;5035289;28;20041;-57
2023/04/24 02:25:29;;;;;;;1.23;1.10;;;;;;;;;;5029143;28;20033;-57
2023/04/24 02:27:55;;;;;;;2.17;0.80;;;;;;;;;;5032756;28;20093;-59
2023/04/24 02:30:22;;;;;;;1.70;0.80;;;;;;;;;;5032169;28;20045;-58
2023/04/24 02:32:48;;;;;;;2.75;1.00;;;;;;;;;;5036866;28;20029;-58
2023/04/24 02:35:14;;;;;;;1.73;0.80;;;;;;;;;;5033380;28;20030;-58
2023/04/24 02:37:40;;;;;;;1.10;0.77;;;;;;;;;;5021901;28;20044;-58
2023/04/24 02:40:07;;;;;;;3.10;1.00;;;;;;;;;;5037671;28;20045;-58
2023/04/24 02:42:34;;;;;;;0.88;0.80;;;;;;;;;;5043866;28;20064;-58
2023/04/24 02:45:00;;;;;;;0.80;0.80;;;;;;;;;;5036419;28;20041;-58
2023/04/24 02:47:27;;;;;;;1.02;0.93;;;;;;;;;;5037487;28;20033;-58
2023/04/24 02:49:53;;;;;;;1.45;1.00;;;;;;;;;;5038677;28;20042;-59
2023/04/24 02:52:19;;;;;;;0.85;0.80;;;;;;;;;;5045874;28;20035;-58
2023/04/24 02:54:45;;;;;;;1.52;0.95;;;;;;;;;;5035942;28;20032;-58
2023/04/24 02:57:11;;;;;;;2.03;1.10;;;;;;;;;;5039882;28;20364;-58
2023/04/24 02:59:40;;;;;;;1.25;0.90;;;;;;;;;;5036243;28;20581;-58
2023/04/24 03:02:07;;;;;;;1.80;1.23;;;;;;;;;;5037736;28;20045;-58
2023/04/24 03:04:33;;;;;;;4.45;1.25;;;;;;;;;;5038509;28;20029;-58
2023/04/24 03:06:59;;;;;;;1.92;0.80;;;;;;;;;;5039899;28;20033;-58
2023/04/24 03:09:25;;;;;;;1.05;0.95;;;;;;;;;;5040619;28;20056;-58
2023/04/24 03:11:51;;;;;;;1.00;1.00;;;;;;;;;;5043355;28;20418;-58
2023/04/24 03:14:17;;;;;;;0.90;0.90;;;;;;;;;;5047542;28;20029;-58
2023/04/24 03:16:44;;;;;;;0.90;0.60;;;;;;;;;;5039329;28;20064;-58
2023/04/24 03:19:10;;;;;;;1.48;0.70;;;;;;;;;;5037613;28;20041;-58
2023/04/24 03:21:45;;;;;;;1.00;0.80;;;;;;;;;;5035202;28;20025;-58
2023/04/24 03:24:12;;;;;;;2.03;0.85;;;;;;;;;;5035195;28;20030;-58
2023/04/24 03:26:38;;;;;;;0.90;0.90;;;;;;;;;;5040718;28;20041;-58
2023/04/24 03:29:24;;;;;;;2.22;0.93;;;;;;;;;;5038342;28;20040;-58
2023/04/24 03:31:51;;;;;;;2.15;1.20;;;;;;;;;;5038335;28;20384;-58
2023/04/24 03:34:17;;;;;;;0.88;0.80;;;;;;;;;;5033749;28;20049;-58
2023/04/24 03:36:44;;;;;;;2.08;0.90;;;;;;;;;;5020029;28;20044;-59
2023/04/24 03:39:11;;;;;;;1.20;1.10;;;;;;;;;;5036177;28;20048;-58
2023/04/24 03:41:42;;;;;;;3.35;0.90;;;;;;;;;;5036608;28;20037;-59
2023/04/24 03:44:22;;;;;;;1.70;1.20;;;;;;;;;;5042146;28;20033;-58
2023/04/24 03:46:48;;;;;;;1.45;0.80;;;;;;;;;;5045419;28;20029;-57
2023/04/24 03:49:14;;;;;;;1.85;0.95;;;;;;;;;;5041682;28;20032;-57
2023/04/24 03:51:43;;;;;;;0.95;0.90;;;;;;;;;;5036154;28;20040;-58
2023/04/24 03:54:30;;;;;;;4.07;2.03;;;;;;;;;;5036336;28;20049;-58
2023/04/24 03:56:56;;;;;;;5.00;1.52;;;;;;;;;;5037845;28;20052;-58
2023/04/24 03:59:24;;;;;;;2.47;1.40;;;;;;;;;;5036339;28;20542;-58
2023/04/24 04:02:04;;;;;;;1.05;0.90;;;;;;;;;;5035700;28;20053;-58
2023/04/24 04:04:31;;;;;;;1.55;0.80;;;;;;;;;;5021930;28;20041;-58
2023/04/24 04:07:00;;;;;;;2.05;0.90;;;;;;;;;;5038128;28;20487;-57
2023/04/24 04:09:27;;;;;;;1.30;1.10;;;;;;;;;;5035123;28;20423;-58
2023/04/24 04:11:53;;;;;;;3.00;1.30;;;;;;;;;;5039064;28;20056;-58
2023/04/24 04:14:19;;;;;;;0.80;0.70;;;;;;;;;;5015020;28;20052;-57
2023/04/24 04:16:47;;;;;;;1.88;0.90;;;;;;;;;;5044873;28;20380;-57
2023/04/24 04:19:14;;;;;;;4.60;2.83;;;;;;;;;;5037615;28;20075;-57
2023/04/24 04:21:41;;;;;;;5.32;2.78;;;;;;;;;;5030152;28;20034;-58
2023/04/24 04:24:23;;;;;;;1.48;1.15;;;;;;;;;;5033531;28;20041;-57
2023/04/24 04:26:52;;;;;;;1.38;1.27;;;;;;;;;;5042185;28;20529;-58
2023/04/24 04:29:36;;;;;;;0.90;0.90;;;;;;;;;;5038409;28;20043;-58
2023/04/24 04:32:05;;;;;;;1.67;1.00;;;;;;;;;;5038281;28;20041;-58
2023/04/24 04:34:33;;;;;;;3.28;1.13;;;;;;;;;;5020508;28;20503;-58
2023/04/24 04:37:01;;;;;;;1.13;0.93;;;;;;;;;;5041446;28;20048;-58
2023/04/24 04:39:48;;;;;;;1.10;1.00;;;;;;;;;;5045374;28;20048;-58
2023/04/24 04:42:20;;;;;;;1.23;1.10;;;;;;;;;;5045699;28;20038;-58
2023/04/24 04:44:46;;;;;;;1.02;0.90;;;;;;;;;;5044066;28;20038;-58
2023/04/24 04:47:17;;;;;;;1.23;1.08;;;;;;;;;;5039714;28;20414;-58
2023/04/24 04:49:45;;;;;;;0.95;0.88;;;;;;;;;;5037985;28;20029;-58
2023/04/24 04:52:24;;;;;;;0.98;0.90;;;;;;;;;;5036888;28;20049;-58
2023/04/24 04:54:53;;;;;;;1.02;0.80;;;;;;;;;;5026212;28;20034;-58
2023/04/24 04:57:20;;;;;;;2.67;1.10;;;;;;;;;;5044763;28;20048;-58
2023/04/24 04:59:47;;;;;;;0.80;0.80;;;;;;;;;;5040153;28;20433;-59
2023/04/24 05:02:21;;;;;;;1.40;1.13;;;;;;;;;;5040893;28;20045;-59
2023/04/24 05:04:47;;;;;;;3.28;2.00;;;;;;;;;;5043156;28;20025;-61
2023/04/24 05:07:14;;;;;;;4.90;2.00;;;;;;;;;;5036225;28;20407;-61
2023/04/24 05:09:45;;;;;;;1.92;1.10;;;;;;;;;;5037605;28;20045;-59
2023/04/24 05:12:12;;;;;;;1.58;1.00;;;;;;;;;;5034687;28;20049;-59
2023/04/24 05:14:47;;;;;;;1.92;1.30;;;;;;;;;;5038940;28;20041;-60
2023/04/24 05:17:13;;;;;;;1.75;1.10;;;;;;;;;;5040131;28;20045;-60
2023/04/24 05:19:39;;;;;;;2.13;1.40;;;;;;;;;;5036627;28;20037;-59
2023/04/24 05:22:07;;;;;;;2.95;1.10;;;;;;;;;;5030764;28;20045;-58
2023/04/24 05:24:37;;;;;;;6.32;1.10;;;;;;;;;;5034381;28;20620;-58
2023/04/24 05:27:18;;;;;;;3.05;1.40;;;;;;;;;;5029976;28;20052;-60
2023/04/24 05:29:44;;;;;;;1.88;1.23;;;;;;;;;;5030895;28;20514;-60
2023/04/24 05:32:11;;;;;;;1.48;1.35;;;;;;;;;;5034843;28;20037;-60
2023/04/24 05:34:37;;;;;;;1.98;1.40;;;;;;;;;;5032676;28;20041;-60
2023/04/24 05:37:07;;;;;;;2.05;1.85;;;;;;;;;;5041749;28;20520;-59
2023/04/24 05:39:35;;;;;;;4.10;2.10;;;;;;;;;;5038695;28;20033;-59
2023/04/24 05:42:01;;;;;;;5.03;2.92;;;;;;;;;;5039346;28;20058;-59
2023/04/24 05:44:27;;;;;;;3.08;2.28;;;;;;;;;;5039520;28;20049;-59
2023/04/24 05:46:55;;;;;;;5.43;2.42;;;;;;;;;;5043405;28;20446;-59
2023/04/24 05:49:22;;;;;;;3.95;2.75;;;;;;;;;;5041756;28;20029;-59
2023/04/24 05:51:48;;;;;;;3.20;2.40;;;;;;;;;;5034806;28;20044;-60
2023/04/24 05:54:15;;;;;;;2.17;1.98;;;;;;;;;;5034252;28;20056;-60
2023/04/24 05:56:42;;;;;;;3.20;1.70;;;;;;;;;;5022419;28;20650;-59
2023/04/24 05:59:08;;;;;;;4.32;2.80;;;;;;;;;;5035766;28;20049;-59
2023/04/24 06:01:35;;;;;;;2.53;2.30;;;;;;;;;;5035721;28;20055;-58
2023/04/24 06:04:14;;;;;;;3.03;2.33;;;;;;;;;;5023030;28;20045;-59
2023/04/24 06:06:40;;;;;;;2.92;1.95;;;;;;;;;;5029689;28;20408;-60
2023/04/24 06:09:07;;;;;;;3.20;2.15;;;;;;;;;;5036740;28;20029;-59
2023/04/24 06:11:34;;;;;;;2.90;2.10;;;;;;;;;;5036477;28;20048;-59
2023/04/24 06:14:00;;;;;;;2.15;1.92;;;;;;;;;;5032070;28;20058;-60
2023/04/24 06:16:40;;;;;;;2.47;1.90;;;;;;;;;;5041584;28;20048;-58
2023/04/24 06:19:16;;;;;;;2.75;2.30;;;;;;;;;;5037476;28;20036;-60
2023/04/24 06:21:42;;;;;;;2.38;2.03;;;;;;;;;;5037809;28;20045;-58
2023/04/24 06:24:08;;;;;;;2.20;1.77;;;;;;;;;;5034678;28;20415;-60
2023/04/24 06:26:34;;;;;;;2.72;1.90;;;;;;;;;;5018753;28;20041;-58
2023/04/24 06:29:00;;;;;;;2.15;1.95;;;;;;;;;;5039742;28;20040;-58
2023/04/24 06:31:27;;;;;;;3.35;2.15;;;;;;;;;;5031914;28;20052;-58
2023/04/24 06:33:54;;;;;;;2.80;2.15;;;;;;;;;;5043860;28;20048;-58
2023/04/24 06:36:20;;;;;;;2.85;2.05;;;;;;;;;;5037238;28;20029;-59
2023/04/24 06:38:46;;;;;;;4.20;3.00;;;;;;;;;;5048178;28;20032;-58
2023/04/24 06:41:12;;;;;;;3.63;2.38;;;;;;;;;;5038365;28;20041;-57
2023/04/24 06:43:39;;;;;;;3.80;2.30;;;;;;;;;;5052250;28;20049;-58
2023/04/24 06:46:05;;;;;;;2.15;1.95;;;;;;;;;;5044770;28;20415;-58
2023/04/24 06:48:31;;;;;;;5.22;2.40;;;;;;;;;;5048038;28;20036;-60
2023/04/24 06:50:57;;;;;;;3.92;2.95;;;;;;;;;;5049629;28;20044;-59
2023/04/24 06:53:23;;;;;;;4.03;2.10;;;;;;;;;;5049486;28;20044;-59
2023/04/24 06:55:50;;;;;;;2.30;2.10;;;;;;;;;;5047370;28;20083;-58
2023/04/24 06:58:16;;;;;;;3.47;2.45;;;;;;;;;;5050508;28;20475;-59
2023/04/24 07:00:42;;;;;;;2.92;2.05;;;;;;;;;;5045186;28;20037;-59
2023/04/24 07:03:08;;;;;;;3.92;2.40;;;;;;;;;;5045131;28;20032;-59
2023/04/24 07:05:35;;;;;;;2.97;2.30;;;;;;;;;;5040590;28;20095;-59
2023/04/24 07:08:01;;;;;;;4.28;2.60;;;;;;;;;;5046949;28;20041;-58
2023/04/24 07:10:28;;;;;;;3.05;2.63;;;;;;;;;;5041703;28;20049;-58
2023/04/24 07:12:56;;;;;;;2.30;2.10;;;;;;;;;;5039912;28;20040;-58
2023/04/24 07:15:23;;;;;;;3.30;2.40;;;;;;;;;;5047393;28;20056;-58
2023/04/24 07:17:49;;;;;;;4.00;2.28;;;;;;;;;;5041089;28;20037;-58
2023/04/24 07:20:16;;;;;;;2.92;2.10;;;;;;;;;;5041470;28;20617;-59
2023/04/24 07:22:43;;;;;;;2.05;1.80;;;;;;;;;;5038583;28;20033;-59
2023/04/24 07:25:09;;;;;;;3.78;2.20;;;;;;;;;;5045838;28;20496;-59
2023/04/24 07:27:36;;;;;;;6.20;3.92;;;;;;;;;;5044943;28;20458;-59
2023/04/24 07:30:04;;;;;;;4.15;3.03;;;;;;;;;;5038932;28;20041;-60
2023/04/24 07:32:30;;;;;;;3.13;2.53;;;;;;;;;;5049752;28;20394;-59
2023/04/24 07:34:56;;;;;;;4.38;2.85;;;;;;;;;;5046142;28;20045;-59
2023/04/24 07:37:23;;;;;;;2.75;2.40;;;;;;;;;;5046441;28;20037;-58
2023/04/24 07:39:49;;;;;;;5.15;2.60;;;;;;;;;;5038362;28;20179;-59
2023/04/24 07:42:16;;;;;;;4.07;2.88;;;;;;;;;;5041462;28;20430;-61
2023/04/24 07:44:42;;;;;;;3.65;2.47;;;;;;;;;;5052586;28;20028;-61
2023/04/24 07:47:08;;;;;;;2.63;2.40;;;;;;;;;;5039893;28;20056;-61
2023/04/24 07:49:35;;;;;;;4.25;2.42;;;;;;;;;;5046903;28;20041;-60
2023/04/24 07:52:02;;;;;;;3.70;2.80;;;;;;;;;;5039467;28;20036;-59
2023/04/24 07:54:29;;;;;;;5.47;2.80;;;;;;;;;;5042627;28;20033;-59
2023/04/24 07:56:56;;;;;;;4.70;2.90;;;;;;;;;;5039251;28;20048;-59
2023/04/24 07:59:22;;;;;;;3.22;2.70;;;;;;;;;;5046979;28;20055;-59
2023/04/24 08:01:48;;;;;;;3.22;2.40;;;;;;;;;;5042108;28;20056;-58
2023/04/24 08:04:14;;;;;;;2.53;2.33;;;;;;;;;;5036769;28;20044;-59
2023/04/24 08:06:40;;;;;;;2.72;2.53;;;;;;;;;;5044073;28;20049;-58
2023/04/24 08:09:07;;;;;;;3.38;2.25;;;;;;;;;;5043133;28;20045;-59
2023/04/24 08:11:33;;;;;;;4.00;2.53;;;;;;;;;;5036109;28;20407;-58
2023/04/24 08:13:59;;;;;;;2.60;2.40;;;;;;;;;;5045256;28;20049;-60
2023/04/24 08:16:25;;;;;;;4.53;2.30;;;;;;;;;;5042497;28;20376;-59
2023/04/24 08:18:53;;;;;;;3.33;2.58;;;;;;;;;;5030268;28;20144;-58
2023/04/24 08:21:20;;;;;;;2.63;1.98;;;;;;;;;;5039387;28;20033;-58
2023/04/24 08:23:46;;;;;;;3.47;2.10;;;;;;;;;;5043055;28;20399;-58
2023/04/24 08:26:13;;;;;;;3.30;2.22;;;;;;;;;;5051768;28;20044;-59
2023/04/24 08:28:39;;;;;;;2.33;1.85;;;;;;;;;;5049991;28;20049;-57
2023/04/24 08:31:05;;;;;;;2.70;2.15;;;;;;;;;;5035991;28;20054;-58
2023/04/24 08:33:34;;;;;;;2.72;1.90;;;;;;;;;;5045811;28;20059;-58
2023/04/24 08:36:05;;;;;;;2.95;2.13;;;;;;;;;;5051254;28;20048;-57
2023/04/24 08:38:31;;;;;;;2.80;2.03;;;;;;;;;;5048012;28;20033;-58
2023/04/24 08:40:59;;;;;;;3.67;2.05;;;;;;;;;;5045189;28;20045;-57
2023/04/24 08:43:27;;;;;;;3.30;2.15;;;;;;;;;;5038586;28;20045;-58
2023/04/24 08:45:56;;;;;;;2.15;1.85;;;;;;;;;;5050805;28;20052;-57
2023/04/24 08:48:23;;;;;;;2.35;1.75;;;;;;;;;;5046293;28;20402;-58
2023/04/24 08:50:50;;;;;;;3.00;2.03;;;;;;;;;;5041825;28;20041;-58
2023/04/24 08:53:19;;;;;;;2.40;2.20;;;;;;;;;;5043528;28;20049;-58
2023/04/24 08:55:48;;;;;;;4.07;1.98;;;;;;;;;;5052149;28;20055;-57
2023/04/24 08:58:16;;;;;;;3.97;2.72;;;;;;;;;;5046792;28;20060;-58
2023/04/24 09:00:46;;;;;;;2.20;2.00;;;;;;;;;;5037627;28;20376;-58
2023/04/24 09:03:15;;;;;;;3.53;2.08;;;;;;;;;;5040836;28;20470;-58
2023/04/24 09:05:46;;;;;;;3.28;2.08;;;;;;;;;;5040380;28;20052;-58
2023/04/24 09:08:14;;;;;;;2.80;2.40;;;;;;;;;;5035856;28;20033;-58
2023/04/24 09:10:41;;;;;;;6.80;2.63;;;;;;;;;;5041827;28;20048;-58
2023/04/24 09:13:11;;;;;;;8.80;3.13;;;;;;;;;;5042649;28;20067;-58
2023/04/24 09:15:38;;;;;;;16.00;6.15;;;;;;;;;;5039317;28;20045;-59
2023/04/24 09:18:05;;;;;;;10.55;5.40;;;;;;;;;;5031862;28;20407;-58
2023/04/24 09:20:32;;;;;;;7.32;2.75;;;;;;;;;;5034902;28;20036;-58
2023/04/24 09:22:58;;;;;;;5.32;2.60;;;;;;;;;;5038226;28;20406;-58
2023/04/24 09:25:37;;;;;;;3.75;1.98;;;;;;;;;;5033455;28;20033;-58
2023/04/24 09:28:06;;;;;;;4.18;2.35;;;;;;;;;;5037663;28;20048;-58
2023/04/24 09:30:32;;;;;;;2.58;2.20;;;;;;;;;;5032768;28;20056;-59
2023/04/24 09:33:18;;;;;;;7.07;2.28;;;;;;;;;;5037278;28;20415;-58
2023/04/24 09:35:52;;;;;;;3.55;1.85;;;;;;;;;;5038938;28;20052;-58
2023/04/24 09:38:30;;;;;;;3.42;1.88;;;;;;;;;;5031189;28;20037;-58
2023/04/24 09:41:00;;;;;;;3.63;1.85;;;;;;;;;;5034050;28;20060;-58
2023/04/24 09:43:27;;;;;;;2.65;2.17;;;;;;;;;;5036528;28;20045;-59
2023/04/24 09:45:57;;;;;;;5.47;2.88;;;;;;;;;;5036437;28;20391;-58
2023/04/24 09:48:33;;;;;;;3.00;2.10;;;;;;;;;;5042047;28;20033;-59
2023/04/24 09:51:01;;;;;;;4.00;2.03;;;;;;;;;;5037113;28;20052;-59
2023/04/24 09:53:28;;;;;;;2.33;1.80;;;;;;;;;;5043778;28;20053;-59
2023/04/24 09:55:54;;;;;;;2.22;1.95;;;;;;;;;;5048600;28;20041;-60
2023/04/24 09:58:26;;;;;;;4.22;2.50;;;;;;;;;;5043666;28;20398;-58
2023/04/24 10:00:56;;;;;;;4.82;2.40;;;;;;;;;;5039997;28;20041;-58
2023/04/24 10:03:29;;;;;;;2.83;2.28;;;;;;;;;;5040726;28;20025;-58
2023/04/24 10:05:59;;;;;;;2.38;1.90;;;;;;;;;;5040396;28;20041;-59
2023/04/24 10:08:26;;;;;;;3.58;2.55;;;;;;;;;;5037514;28;20036;-58
2023/04/24 10:10:52;;;;;;;3.50;2.42;;;;;;;;;;5037908;28;20041;-58
2023/04/24 10:13:19;;;;;;;2.88;1.98;;;;;;;;;;5039620;28;20060;-58
2023/04/24 10:15:48;;;;;;;3.15;2.22;;;;;;;;;;5040994;28;20030;-58
2023/04/24 10:18:15;;;;;;;4.45;2.22;;;;;;;;;;5036927;28;20041;-59
2023/04/24 10:20:42;;;;;;;3.63;2.38;;;;;;;;;;5041033;28;20124;-58
2023/04/24 10:23:08;;;;;;;3.85;2.22;;;;;;;;;;5039342;28;20028;-57
2023/04/24 10:25:36;;;;;;;5.97;2.20;;;;;;;;;;5047216;28;20050;-58
2023/04/24 10:28:03;;;;;;;4.15;2.30;;;;;;;;;;5050761;28;20056;-58
2023/04/24 10:30:37;;;;;;;2.53;2.10;;;;;;;;;;5045426;28;20268;-58
2023/04/24 10:33:05;;;;;;;6.63;2.05;;;;;;;;;;5044665;28;20061;-59
2023/04/24 10:35:34;;;;;;;3.92;1.80;;;;;;;;;;5046510;28;20053;-59
2023/04/24 10:38:09;;;;;;;3.78;2.25;;;;;;;;;;5039335;28;20394;-58
2023/04/24 10:40:36;;;;;;;5.00;2.13;;;;;;;;;;5038082;28;20033;-62
2023/04/24 10:43:07;;;;;;;4.15;2.22;;;;;;;;;;5046548;28;20052;-59
2023/04/24 10:45:34;;;;;;;2.45;2.20;;;;;;;;;;5046645;28;20466;-58
2023/04/24 10:48:04;;;;;;;2.10;1.90;;;;;;;;;;5046666;28;20047;-58
2023/04/24 10:50:46;;;;;;;3.13;1.88;;;;;;;;;;5032840;28;20038;-58
2023/04/24 10:53:23;;;;;;;5.28;2.20;;;;;;;;;;5031006;28;20045;-58
2023/04/24 10:55:51;;;;;;;3.13;2.13;;;;;;;;;;5035734;28;20414;-58
2023/04/24 10:58:35;;;;;;;2.33;1.80;;;;;;;;;;5040986;28;20403;-58
2023/04/24 11:01:01;;;;;;;2.22;2.03;;;;;;;;;;5039329;28;20033;-59
2023/04/24 11:03:29;;;;;;;2.60;1.77;;;;;;;;;;5038753;28;20040;-60
2023/04/24 11:05:57;;;;;;;2.25;1.73;;;;;;;;;;5045238;28;20032;-59
2023/04/24 11:08:24;;;;;;;2.67;1.73;;;;;;;;;;5039652;28;20080;-59
2023/04/24 11:11:17;;;;;;;2.42;1.83;;;;;;;;;;5039566;28;20025;-59
2023/04/24 11:13:56;;;;;;;2.13;1.90;;;;;;;;;;5038190;28;20041;-58
2023/04/24 11:16:34;;;;;;;2.80;1.90;;;;;;;;;;5041267;28;20414;-59
2023/04/24 11:19:05;;;;;;;4.13;1.83;;;;;;;;;;5031736;28;20048;-58
2023/04/24 11:21:43;;;;;;;2.60;2.17;;;;;;;;;;5030205;28;20034;-59
2023/04/24 11:24:30;;;;;;;1.90;1.70;;;;;;;;;;5037932;28;20490;-59
2023/04/24 11:27:01;;;;;;;2.97;1.85;;;;;;;;;;5042154;28;20064;-59
2023/04/24 11:29:43;;;;;;;1.80;1.50;;;;;;;;;;5043843;28;20039;-59
2023/04/24 11:32:32;;;;;;;2.97;2.35;;;;;;;;;;5042306;28;20044;-59
2023/04/24 11:35:01;;;;;;;3.38;2.05;;;;;;;;;;5046575;28;20041;-59
2023/04/24 11:37:29;;;;;;;1.95;1.85;;;;;;;;;;5052416;28;20048;-58
2023/04/24 11:39:57;;;;;;;2.90;1.98;;;;;;;;;;5044998;28;20041;-58
2023/04/24 11:42:25;;;;;;;11.20;5.35;;;;;;;;;;5046546;28;20044;-58
2023/04/24 11:44:59;;;;;;;3.15;2.17;;;;;;;;;;5049217;28;20032;-59
2023/04/24 11:47:33;;;;;;;2.20;2.00;;;;;;;;;;5043340;28;20417;-59
2023/04/24 11:50:00;;;;;;;3.65;1.77;;;;;;;;;;5040358;28;20068;-60
2023/04/24 11:52:27;;;;;;;2.38;1.75;;;;;;;;;;5041102;28;20499;-58
2023/04/24 11:54:54;;;;;;;3.45;2.20;;;;;;;;;;5038404;28;20052;-61
2023/04/24 11:57:22;;;;;;;2.38;1.90;;;;;;;;;;5041966;28;20036;-58
2023/04/24 11:59:48;;;;;;;3.00;2.00;;;;;;;;;;5041410;28;20525;-60
2023/04/24 12:02:25;;;;;;;1.50;1.40;;;;;;;;;;5047328;28;20033;-59
2023/04/24 12:04:53;;;;;;;3.40;1.70;;;;;;;;;;5041236;28;20049;-61
2023/04/24 12:07:19;;;;;;;2.03;1.77;;;;;;;;;;5039865;28;20029;-59
2023/04/24 12:09:47;;;;;;;2.88;2.30;;;;;;;;;;5043763;28;20041;-61
2023/04/24 12:12:16;;;;;;;3.97;2.00;;;;;;;;;;5042210;28;20060;-61
2023/04/24 12:14:50;;;;;;;2.92;1.77;;;;;;;;;;5039269;28;20029;-61
2023/04/24 12:17:17;;;;;;;3.17;2.10;;;;;;;;;;5041173;28;20045;-59
2023/04/24 12:19:47;;;;;;;2.67;2.00;;;;;;;;;;5040948;28;20517;-61
2023/04/24 12:22:14;;;;;;;2.78;2.08;;;;;;;;;;5063606;28;20032;-59
2023/04/24 12:24:58;;;;;;;3.45;1.80;;;;;;;;;;5042616;28;20046;-60
2023/04/24 12:27:25;;;;;;;5.43;1.75;;;;;;;;;;5044584;28;20676;-60
2023/04/24 12:29:56;;;;;;;2.58;2.10;;;;;;;;;;5038338;28;20698;-60
2023/04/24 12:32:23;;;;;;;4.35;2.00;;;;;;;;;;5040946;28;20052;-62
2023/04/24 12:34:51;;;;;;;3.75;1.98;;;;;;;;;;5042879;28;20055;-60
2023/04/24 12:37:18;;;;;;;2.25;1.90;;;;;;;;;;5037812;28;20037;-58
2023/04/24 12:40:05;;;;;;;3.05;2.00;;;;;;;;;;5039587;28;20418;-60
2023/04/24 12:42:31;;;;;;;2.97;1.80;;;;;;;;;;5045553;28;20052;-60
2023/04/24 12:44:59;;;;;;;3.70;2.45;;;;;;;;;;5044126;28;20036;-58
2023/04/24 12:47:27;;;;;;;2.83;1.92;;;;;;;;;;5044829;28;20571;-61
2023/04/24 12:49:55;;;;;;;4.60;1.60;;;;;;;;;;5041068;28;20040;-59
2023/04/24 12:52:23;;;;;;;4.00;2.00;;;;;;;;;;5041396;28;20028;-62
2023/04/24 12:54:54;;;;;;;2.30;1.80;;;;;;;;;;5039629;28;20068;-58
2023/04/24 12:57:21;;;;;;;3.28;2.00;;;;;;;;;;5041420;28;20052;-61
2023/04/24 12:59:48;;;;;;;3.63;2.13;;;;;;;;;;5042022;28;20414;-60
2023/04/24 13:02:17;;;;;;;3.40;2.03;;;;;;;;;;5039427;28;20045;-58
2023/04/24 13:04:46;;;;;;;3.13;2.20;;;;;;;;;;5037756;28;20040;-60
2023/04/24 13:07:14;;;;;;;2.42;1.73;;;;;;;;;;5039279;28;20045;-59
2023/04/24 13:09:42;;;;;;;6.60;2.60;;;;;;;;;;5038829;28;20045;-59
2023/04/24 13:12:09;;;;;;;5.63;2.80;;;;;;;;;;5049492;28;20032;-59
2023/04/24 13:14:35;;;;;;;4.40;3.20;;;;;;;;;;5039783;28;20037;-61
2023/04/24 13:17:02;;;;;;;4.75;2.60;;;;;;;;;;5048100;28;20056;-60
2023/04/24 13:19:29;;;;;;;3.70;2.45;;;;;;;;;;5037066;28;20037;-58
2023/04/24 13:21:57;;;;;;;5.68;2.50;;;;;;;;;;5032607;28;20936;-58
2023/04/24 13:24:24;;;;;;;3.78;2.50;;;;;;;;;;5040811;28;20032;-58
2023/04/24 13:26:51;;;;;;;6.25;2.80;;;;;;;;;;5048642;28;20037;-58
2023/04/24 13:29:18;;;;;;;5.32;2.80;;;;;;;;;;5047608;28;20055;-59
2023/04/24 13:31:44;;;;;;;10.93;3.60;;;;;;;;;;5044969;28;20040;-59
2023/04/24 13:34:10;;;;;;;5.38;3.10;;;;;;;;;;5037854;28;20033;-59
2023/04/24 13:36:36;;;;;;;4.78;2.80;;;;;;;;;;5042453;28;20510;-59
2023/04/24 13:39:04;;;;;;;4.13;3.10;;;;;;;;;;5044380;28;20048;-59
2023/04/24 13:41:32;;;;;;;4.20;3.10;;;;;;;;;;5050061;28;20029;-61
2023/04/24 13:43:59;;;;;;;7.32;3.17;;;;;;;;;;5048057;28;20048;-59
2023/04/24 13:46:25;;;;;;;4.60;3.55;;;;;;;;;;5035665;28;20040;-59
2023/04/24 13:48:52;;;;;;;6.20;3.50;;;;;;;;;;5043025;28;20029;-59
2023/04/24 13:51:18;;;;;;;5.70;3.03;;;;;;;;;;5040877;28;20036;-60
2023/04/24 13:53:44;;;;;;;5.40;3.58;;;;;;;;;;5037868;28;20068;-60
2023/04/24 13:56:12;;;;;;;5.70;3.58;;;;;;;;;;5043431;28;20089;-59
2023/04/24 13:58:38;;;;;;;5.93;3.65;;;;;;;;;;5041715;28;20501;-59
2023/04/24 14:01:04;;;;;;;7.13;3.58;;;;;;;;;;5038550;28;20052;-58
2023/04/24 14:03:31;;;;;;;6.38;3.53;;;;;;;;;;5035833;28;20042;-59
2023/04/24 14:05:57;;;;;;;5.82;3.17;;;;;;;;;;5038318;28;20053;-58
2023/04/24 14:08:23;;;;;;;9.65;3.17;;;;;;;;;;5040562;28;20029;-59
2023/04/24 14:10:50;;;;;;;9.48;4.00;;;;;;;;;;5037977;28;20033;-59
2023/04/24 14:13:17;;;;;;;6.25;3.92;;;;;;;;;;5036292;28;20515;-59
2023/04/24 14:15:43;;;;;;;7.70;4.28;;;;;;;;;;5032348;28;20036;-60
2023/04/24 14:18:09;;;;;;;5.82;3.42;;;;;;;;;;5035312;28;20040;-59
2023/04/24 14:20:36;;;;;;;6.88;3.47;;;;;;;;;;5036062;28;20045;-60
2023/04/24 14:23:02;;;;;;;6.25;3.92;;;;;;;;;;5044834;28;20036;-60
2023/04/24 14:25:28;;;;;;;7.13;4.60;;;;;;;;;;5040924;28;20396;-59
2023/04/24 14:27:55;;;;;;;12.30;5.93;;;;;;;;;;5046667;28;20489;-59
2023/04/24 14:30:21;;;;;;;6.97;4.05;;;;;;;;;;5040746;28;20428;-59
2023/04/24 14:32:48;;;;;;;9.13;4.72;;;;;;;;;;5049734;28;20029;-59
2023/04/24 14:35:14;;;;;;;9.48;5.00;;;;;;;;;;5044519;28;20521;-59
2023/04/24 14:37:41;;;;;;;6.35;4.03;;;;;;;;;;5047716;28;20470;-59
2023/04/24 14:40:08;;;;;;;5.65;3.92;;;;;;;;;;5038609;28;20044;-60
2023/04/24 14:42:35;;;;;;;8.45;4.57;;;;;;;;;;5045591;28;20041;-60
2023/04/24 14:45:02;;;;;;;9.98;4.82;;;;;;;;;;5047573;28;20032;-59
2023/04/24 14:47:29;;;;;;;6.68;3.47;;;;;;;;;;5042051;28;20025;-60
2023/04/24 14:49:55;;;;;;;10.75;3.97;;;;;;;;;;5034185;28;20044;-60